Time;durP1;ratioP1;P1;durP2;ratioP2;P2;SDS_P1;SDS_P2;PMS_P1;PMS_P2;Temp;Humidity;BMP_temperature;BMP_pressure;BME280_temperature;BME280_humidity;BME280_pressure;Samples;Min_cycle;Max_cycle;Signal;HPM_P1;HPM_P2
2023/06/13 00:00:31;;;;;;;5.10;4.60;;;;;;;23.91;32.14;97058.94;5091151;28;20186;-70
2023/06/13 00:02:58;;;;;;;5.57;5.07;;;;;;;23.90;32.21;97060.00;5090654;28;20225;-71
2023/06/13 00:05:23;;;;;;;7.13;5.37;;;;;;;23.86;32.04;97060.72;5094481;28;20650;-69
2023/06/13 00:07:49;;;;;;;6.77;4.47;;;;;;;23.85;32.33;97059.94;5097244;28;20470;-69
2023/06/13 00:10:15;;;;;;;4.97;4.47;;;;;;;23.82;32.50;97056.94;5090279;28;20220;-68
2023/06/13 00:12:41;;;;;;;4.73;4.33;;;;;;;23.83;32.14;97053.19;5100515;28;20196;-68
2023/06/13 00:15:10;;;;;;;5.23;4.73;;;;;;;23.78;32.63;97053.91;5092717;28;20182;-69
2023/06/13 00:17:36;;;;;;;4.97;4.47;;;;;;;23.78;32.42;97054.72;5089914;28;20715;-69
2023/06/13 00:20:04;;;;;;;6.50;4.80;;;;;;;23.73;32.40;97051.94;5090321;28;20424;-69
2023/06/13 00:22:29;;;;;;;5.33;4.80;;;;;;;23.68;32.44;97051.88;5072428;28;20471;-69
2023/06/13 00:24:55;;;;;;;7.23;4.70;;;;;;;23.75;32.53;97055.19;5085675;28;20760;-69
2023/06/13 00:27:20;;;;;;;5.37;4.87;;;;;;;23.70;32.52;97049.75;5090250;28;20327;-69
2023/06/13 00:29:46;;;;;;;6.20;4.73;;;;;;;23.70;32.65;97054.31;5071321;28;20536;-69
2023/06/13 00:32:11;;;;;;;5.23;4.73;;;;;;;23.70;32.84;97051.63;5090393;28;20354;-70
2023/06/13 00:34:38;;;;;;;4.70;4.17;;;;;;;23.73;32.73;97051.94;5085252;28;20285;-69
2023/06/13 00:37:05;;;;;;;5.63;5.10;;;;;;;23.65;32.60;97048.84;5089910;28;20227;-69
2023/06/13 00:39:30;;;;;;;5.53;4.80;;;;;;;23.63;32.92;97049.91;5089673;28;20562;-69
2023/06/13 00:41:56;;;;;;;5.87;4.20;;;;;;;23.55;32.29;97046.81;5090423;28;20510;-69
2023/06/13 00:44:21;;;;;;;7.60;4.77;;;;;;;23.45;32.83;97042.91;5089256;28;20284;-69
2023/06/13 00:46:47;;;;;;;5.03;4.43;;;;;;;23.50;32.95;97041.38;5089443;28;20231;-69
2023/06/13 00:49:15;;;;;;;6.10;4.83;;;;;;;23.41;33.21;97033.75;5090097;28;20670;-69
2023/06/13 00:51:41;;;;;;;7.33;4.40;;;;;;;23.42;32.94;97039.88;5069984;28;20242;-69
2023/06/13 00:54:07;;;;;;;5.23;4.40;;;;;;;23.46;33.13;97038.38;5070604;28;21108;-69
2023/06/13 00:56:34;;;;;;;4.43;4.03;;;;;;;23.49;32.82;97037.06;5089477;28;20881;-69
2023/06/13 00:59:01;;;;;;;4.40;4.00;;;;;;;23.40;33.02;97044.66;5089220;28;20451;-68
2023/06/13 01:01:30;;;;;;;6.40;4.97;;;;;;;23.44;32.79;97040.47;5088568;28;20896;-69
2023/06/13 01:03:59;;;;;;;5.80;4.50;;;;;;;23.45;33.20;97039.44;5108873;28;20964;-68
2023/06/13 01:06:28;;;;;;;5.07;4.47;;;;;;;23.42;33.25;97034.53;5092730;28;20428;-69
2023/06/13 01:08:58;;;;;;;5.93;4.40;;;;;;;23.37;33.32;97035.25;5088634;28;20428;-68
2023/06/13 01:11:33;;;;;;;4.13;3.73;;;;;;;23.36;33.28;97033.66;5090843;28;21045;-69
2023/06/13 01:14:07;;;;;;;5.53;5.03;;;;;;;23.39;33.46;97030.50;5076422;28;20435;-70
2023/06/13 01:16:40;;;;;;;4.30;3.90;;;;;;;23.28;33.58;97024.13;5097188;28;20439;-70
2023/06/13 01:19:18;;;;;;;4.80;4.40;;;;;;;23.10;33.88;97027.78;5071380;28;20833;-68
2023/06/13 01:21:45;;;;;;;4.60;4.20;;;;;;;23.08;34.08;97027.19;5070719;28;21048;-69
2023/06/13 01:24:19;;;;;;;4.47;4.07;;;;;;;23.08;33.92;97029.88;5076192;28;20962;-68
2023/06/13 01:26:54;;;;;;;4.50;4.10;;;;;;;23.01;33.74;97026.53;5091695;28;20995;-70
2023/06/13 01:29:20;;;;;;;5.83;4.20;;;;;;;22.98;34.01;97019.81;5088655;28;20427;-69
2023/06/13 01:31:49;;;;;;;5.20;4.60;;;;;;;22.98;34.20;97022.47;5089351;28;20539;-70
2023/06/13 01:34:14;;;;;;;5.50;4.17;;;;;;;22.99;34.36;97020.59;5084750;28;20984;-68
2023/06/13 01:36:40;;;;;;;8.03;4.80;;;;;;;23.04;33.86;97020.72;5090357;28;20515;-68
2023/06/13 01:39:05;;;;;;;4.33;3.90;;;;;;;23.01;34.10;97024.66;5085587;28;20237;-69
2023/06/13 01:41:31;;;;;;;5.77;4.43;;;;;;;23.00;34.37;97019.56;5070785;28;20213;-69
2023/06/13 01:43:56;;;;;;;6.10;4.30;;;;;;;22.95;34.42;97024.78;5100218;28;20224;-67
2023/06/13 01:46:26;;;;;;;6.50;4.30;;;;;;;22.95;34.45;97014.94;5072107;28;20574;-70
2023/06/13 01:48:54;;;;;;;7.30;4.23;;;;;;;22.99;34.30;97012.59;5097368;28;20212;-69
2023/06/13 01:51:26;;;;;;;4.87;4.37;;;;;;;23.03;34.21;97005.72;5088518;28;20439;-69
2023/06/13 01:53:56;;;;;;;10.53;4.30;;;;;;;23.00;34.24;97006.19;5073268;28;20466;-69
2023/06/13 01:56:27;;;;;;;5.30;4.07;;;;;;;22.98;34.45;97006.44;5100398;28;20436;-68
2023/06/13 01:59:00;;;;;;;4.80;4.20;;;;;;;22.91;33.97;97002.28;5070265;28;20474;-68
2023/06/13 02:01:27;;;;;;;5.67;4.23;;;;;;;22.89;34.23;97004.38;5075387;28;20451;-68
2023/06/13 02:03:53;;;;;;;5.50;4.10;;;;;;;22.82;34.23;97002.63;5084098;28;20440;-68
2023/06/13 02:06:18;;;;;;;5.10;3.80;;;;;;;22.85;34.02;97002.16;5095415;28;20512;-68
2023/06/13 02:08:45;;;;;;;4.43;4.03;;;;;;;22.86;34.07;97008.34;5088286;28;20478;-68
2023/06/13 02:11:11;;;;;;;5.20;4.70;;;;;;;22.80;33.85;97006.59;5088361;28;20190;-69
2023/06/13 02:13:36;;;;;;;4.47;4.10;;;;;;;22.77;33.95;96999.88;5087715;28;20474;-69
2023/06/13 02:16:02;;;;;;;9.90;4.10;;;;;;;22.72;34.14;97001.63;5069888;28;20424;-68
2023/06/13 02:18:28;;;;;;;5.00;4.13;;;;;;;22.66;34.24;97006.06;5088022;28;20572;-68
2023/06/13 02:20:54;;;;;;;4.30;3.83;;;;;;;22.59;34.28;97003.50;5080212;28;20180;-69
2023/06/13 02:23:20;;;;;;;4.90;3.67;;;;;;;22.49;34.28;97009.44;5089008;28;20214;-68
2023/06/13 02:25:46;;;;;;;5.63;4.10;;;;;;;22.49;34.51;97001.44;5076822;28;20948;-68
2023/06/13 02:28:12;;;;;;;4.00;3.63;;;;;;;22.37;34.23;97006.72;5093180;28;20430;-68
2023/06/13 02:30:37;;;;;;;7.50;3.87;;;;;;;22.36;34.54;97002.47;5087551;28;20443;-68
2023/06/13 02:33:03;;;;;;;5.03;3.60;;;;;;;22.37;34.69;97008.59;5094913;28;20474;-69
2023/06/13 02:35:29;;;;;;;4.23;3.90;;;;;;;22.28;34.49;97002.81;5084171;28;20174;-70
2023/06/13 02:37:54;;;;;;;8.70;4.33;;;;;;;22.27;34.68;97005.72;5089461;28;20204;-69
2023/06/13 02:40:21;;;;;;;5.83;4.30;;;;;;;22.21;34.61;97012.78;5095803;28;20192;-69
2023/06/13 02:42:52;;;;;;;4.47;4.03;;;;;;;22.18;34.80;97010.56;5088405;28;20552;-69
2023/06/13 02:45:17;;;;;;;5.70;4.20;;;;;;;22.15;34.73;97014.53;5037219;28;20436;-69
2023/06/13 02:47:43;;;;;;;6.23;3.63;;;;;;;22.12;34.77;97011.50;5061003;28;20418;-68
2023/06/13 02:50:09;;;;;;;5.33;3.90;;;;;;;22.13;34.84;97019.28;5053239;28;20185;-69
2023/06/13 02:52:35;;;;;;;4.17;3.73;;;;;;;22.08;34.91;97011.97;5060541;28;20192;-68
2023/06/13 02:55:02;;;;;;;6.20;4.00;;;;;;;22.07;34.57;97014.84;5087249;28;20420;-69
2023/06/13 02:57:27;;;;;;;4.47;4.07;;;;;;;22.02;35.02;97017.41;5051850;28;20217;-68
2023/06/13 02:59:52;;;;;;;3.90;3.60;;;;;;;22.03;35.03;97024.38;5085077;28;20550;-70
2023/06/13 03:02:20;;;;;;;7.33;4.00;;;;;;;22.05;35.23;97012.44;5095028;28;20264;-68
2023/06/13 03:04:47;;;;;;;9.30;3.83;;;;;;;22.06;35.03;97013.22;5092495;28;20214;-69
2023/06/13 03:07:16;;;;;;;5.63;4.03;;;;;;;22.08;34.99;97011.16;5086580;28;20594;-69
2023/06/13 03:09:42;;;;;;;4.27;3.67;;;;;;;22.07;35.09;97021.03;5087332;28;20502;-68
2023/06/13 03:12:07;;;;;;;4.60;3.93;;;;;;;22.04;35.07;97018.81;5092278;28;20501;-69
2023/06/13 03:14:33;;;;;;;4.60;4.20;;;;;;;22.01;35.06;97013.13;5086630;28;20234;-68
2023/06/13 03:16:59;;;;;;;7.20;4.53;;;;;;;21.99;34.97;97024.00;5088933;28;20186;-68
2023/06/13 03:19:24;;;;;;;6.17;4.00;;;;;;;21.95;34.82;97022.88;5091132;28;20210;-68
2023/06/13 03:21:50;;;;;;;7.70;4.33;;;;;;;21.90;34.99;97020.88;5088952;28;20185;-69
2023/06/13 03:24:15;;;;;;;4.60;4.20;;;;;;;21.81;34.61;97024.91;5089818;28;20238;-69
2023/06/13 03:26:41;;;;;;;5.40;3.87;;;;;;;21.84;34.91;97027.13;5099473;28;20186;-67
2023/06/13 03:29:07;;;;;;;11.73;3.97;;;;;;;21.81;34.98;97021.44;5069914;28;20230;-69
2023/06/13 03:31:32;;;;;;;7.37;3.70;;;;;;;21.74;34.75;97024.22;5099331;28;20692;-68
2023/06/13 03:33:58;;;;;;;6.80;3.60;;;;;;;21.80;35.09;97036.63;5090920;28;20446;-68
2023/06/13 03:36:23;;;;;;;4.40;3.93;;;;;;;21.82;34.57;97031.06;5095838;28;20185;-69
2023/06/13 03:38:50;;;;;;;4.73;3.37;;;;;;;21.87;34.64;97037.34;5088891;28;20330;-69
2023/06/13 03:41:16;;;;;;;5.00;3.70;;;;;;;21.78;34.96;97044.06;5088096;28;20196;-69
2023/06/13 03:43:41;;;;;;;7.10;3.60;;;;;;;21.75;35.17;97039.16;5080620;28;20459;-68
2023/06/13 03:46:06;;;;;;;7.80;3.93;;;;;;;21.79;35.08;97045.69;5090527;28;20213;-69
2023/06/13 03:48:32;;;;;;;5.67;3.50;;;;;;;21.81;34.75;97043.56;5086735;28;20185;-68
2023/06/13 03:50:57;;;;;;;4.03;3.47;;;;;;;21.82;34.83;97055.88;5090175;28;20265;-68
2023/06/13 03:53:23;;;;;;;5.33;3.80;;;;;;;21.85;34.87;97055.44;5064363;28;20262;-69
2023/06/13 03:55:49;;;;;;;5.20;3.43;;;;;;;21.87;34.55;97048.00;5091985;28;20666;-69
2023/06/13 03:58:15;;;;;;;4.63;4.00;;;;;;;21.77;34.76;97053.09;5099364;28;20201;-68
2023/06/13 04:00:42;;;;;;;6.10;3.60;;;;;;;21.72;35.15;97050.28;5090569;28;20424;-68
2023/06/13 04:03:08;;;;;;;5.93;3.83;;;;;;;21.73;34.90;97058.06;5086568;28;20196;-69
2023/06/13 04:05:33;;;;;;;5.10;4.27;;;;;;;21.68;35.26;97055.28;5088180;28;20412;-67
2023/06/13 04:07:59;;;;;;;6.40;3.33;;;;;;;21.63;35.05;97058.63;5093904;28;20813;-67
2023/06/13 04:10:24;;;;;;;6.97;3.73;;;;;;;21.57;35.07;97064.00;5087939;28;20192;-69
2023/06/13 04:12:50;;;;;;;3.60;3.30;;;;;;;21.57;35.00;97059.47;5079646;28;20295;-69
2023/06/13 04:15:16;;;;;;;5.63;3.50;;;;;;;21.57;34.97;97058.69;5092103;28;20217;-68
2023/06/13 04:17:41;;;;;;;5.30;3.57;;;;;;;21.61;34.92;97060.69;5090147;28;20193;-68
2023/06/13 04:20:09;;;;;;;12.57;3.87;;;;;;;21.57;35.08;97064.00;5094395;28;20463;-69
2023/06/13 04:22:35;;;;;;;4.63;3.37;;;;;;;21.51;35.04;97059.56;5086784;28;20186;-68
2023/06/13 04:25:01;;;;;;;9.33;3.40;;;;;;;21.56;35.02;97060.50;5095199;28;20456;-68
2023/06/13 04:27:31;;;;;;;9.10;3.30;;;;;;;21.44;34.79;97065.00;5082568;28;20458;-69
2023/06/13 04:29:56;;;;;;;8.00;3.97;;;;;;;21.49;35.44;97062.47;5086203;28;20308;-69
2023/06/13 04:32:23;;;;;;;3.90;3.50;;;;;;;21.57;34.84;97069.34;5096039;28;20912;-69
2023/06/13 04:34:53;;;;;;;4.50;3.00;;;;;;;21.57;35.08;97062.16;5089516;28;20213;-68
2023/06/13 04:37:25;;;;;;;5.00;3.40;;;;;;;21.56;34.89;97073.84;5052846;28;20428;-67
2023/06/13 04:39:54;;;;;;;4.30;3.50;;;;;;;21.60;34.85;97069.72;5078578;28;20459;-68
2023/06/13 04:42:24;;;;;;;10.30;3.40;;;;;;;21.52;35.11;97066.53;5085107;28;20460;-68
2023/06/13 04:44:55;;;;;;;3.90;3.20;;;;;;;21.59;34.99;97072.59;5078154;28;20538;-68
2023/06/13 04:47:23;;;;;;;4.90;3.90;;;;;;;21.56;35.19;97075.72;5092603;28;20924;-68
2023/06/13 04:49:51;;;;;;;6.50;3.63;;;;;;;21.63;35.35;97073.78;5079545;28;20438;-68
2023/06/13 04:52:18;;;;;;;4.63;3.30;;;;;;;21.69;35.11;97072.91;5078547;28;20423;-68
2023/06/13 04:54:45;;;;;;;3.50;3.20;;;;;;;21.79;35.11;97072.34;5093872;28;20960;-68
2023/06/13 04:57:12;;;;;;;3.73;3.43;;;;;;;21.84;35.01;97071.66;5066409;28;20436;-67
2023/06/13 04:59:38;;;;;;;5.77;3.20;;;;;;;21.91;35.00;97070.53;5089718;28;20890;-68
2023/06/13 05:02:04;;;;;;;4.67;3.30;;;;;;;21.94;34.59;97069.25;5078423;28;20534;-68
2023/06/13 05:04:30;;;;;;;4.33;3.10;;;;;;;22.01;34.20;97074.50;5093509;28;20466;-69
2023/06/13 05:06:57;;;;;;;7.73;3.30;;;;;;;22.04;33.85;97068.69;5080163;28;20326;-69
2023/06/13 05:09:22;;;;;;;10.13;3.37;;;;;;;21.98;33.52;97080.28;5095630;28;20204;-69
2023/06/13 05:11:48;;;;;;;4.23;3.83;;;;;;;22.00;34.00;97075.53;5097697;28;20423;-68
2023/06/13 05:14:13;;;;;;;3.20;2.87;;;;;;;22.09;34.28;97087.47;5079013;28;20197;-69
2023/06/13 05:16:40;;;;;;;5.80;3.70;;;;;;;22.18;33.88;97090.63;5092159;28;20273;-69
2023/06/13 05:19:06;;;;;;;6.27;3.00;;;;;;;22.24;34.05;97084.41;5088414;28;20205;-69
2023/06/13 05:21:32;;;;;;;4.03;3.30;;;;;;;22.29;33.35;97081.81;5084856;28;20452;-69
2023/06/13 05:23:58;;;;;;;4.00;3.53;;;;;;;22.33;32.85;97076.84;5085034;28;20466;-70
2023/06/13 05:26:23;;;;;;;5.93;3.33;;;;;;;22.34;32.87;97081.97;5084773;28;20480;-68
2023/06/13 05:28:49;;;;;;;3.87;3.47;;;;;;;22.49;33.04;97075.38;5083968;28;20202;-68
2023/06/13 05:31:14;;;;;;;4.17;3.27;;;;;;;22.45;31.60;97080.34;5095915;28;20235;-69
2023/06/13 05:33:40;;;;;;;4.33;3.47;;;;;;;22.58;32.04;97084.66;5096574;28;20220;-68
2023/06/13 05:36:05;;;;;;;7.73;3.13;;;;;;;22.74;31.35;97077.81;5089250;28;20540;-69
2023/06/13 05:38:32;;;;;;;7.70;3.47;;;;;;;22.77;31.43;97076.50;5094117;28;20213;-68
2023/06/13 05:40:57;;;;;;;5.90;3.27;;;;;;;22.84;31.48;97083.34;5089006;28;20200;-70
2023/06/13 05:43:23;;;;;;;3.20;2.90;;;;;;;22.72;29.89;97079.88;5085963;28;20440;-70
2023/06/13 05:45:49;;;;;;;6.40;3.03;;;;;;;22.82;30.69;97080.09;5091103;28;20585;-68
2023/06/13 05:48:15;;;;;;;8.20;3.13;;;;;;;22.90;29.93;97086.94;5089757;28;20178;-69
2023/06/13 05:50:40;;;;;;;5.00;3.17;;;;;;;23.00;30.35;97079.16;5069963;28;20510;-69
2023/06/13 05:53:06;;;;;;;5.13;2.70;;;;;;;23.09;29.72;97076.94;5087895;28;20197;-69
2023/06/13 05:55:31;;;;;;;6.50;2.70;;;;;;;23.16;29.79;97082.13;5096347;28;20176;-69
2023/06/13 05:57:56;;;;;;;6.17;3.20;;;;;;;23.13;29.75;97075.41;5087238;28;20261;-69
2023/06/13 06:00:22;;;;;;;3.23;2.93;;;;;;;23.28;29.91;97069.59;5092747;28;20788;-69
2023/06/13 06:02:48;;;;;;;5.37;3.03;;;;;;;23.27;29.93;97069.81;5093773;28;20173;-67
2023/06/13 06:05:14;;;;;;;11.23;3.33;;;;;;;23.23;28.69;97082.03;5089027;28;20264;-68
2023/06/13 06:07:41;;;;;;;6.67;3.00;;;;;;;23.34;29.35;97070.50;5087103;28;20186;-68
2023/06/13 06:10:07;;;;;;;7.53;2.70;;;;;;;23.41;28.68;97057.81;5087775;28;20447;-69
2023/06/13 06:12:32;;;;;;;6.10;3.03;;;;;;;23.42;29.19;97067.47;5093561;28;20809;-68
2023/06/13 06:14:58;;;;;;;6.13;3.13;;;;;;;23.35;28.12;97056.06;5087743;28;20995;-69
2023/06/13 06:17:23;;;;;;;15.80;3.63;;;;;;;23.52;28.90;97056.13;5069922;28;20712;-69
2023/06/13 06:19:49;;;;;;;9.73;4.13;;;;;;;23.63;29.78;97062.47;5095083;28;20204;-69
2023/06/13 06:22:15;;;;;;;5.00;3.13;;;;;;;23.72;28.57;97071.72;5091045;28;20234;-68
2023/06/13 06:24:42;;;;;;;6.20;3.33;;;;;;;23.72;27.32;97061.03;5087424;28;20278;-70
2023/06/13 06:27:07;;;;;;;7.20;3.07;;;;;;;23.71;27.29;97069.31;5088020;28;20761;-68
2023/06/13 06:29:33;;;;;;;4.40;2.80;;;;;;;23.73;27.36;97069.88;5087824;28;20427;-70
2023/06/13 06:31:58;;;;;;;5.40;3.37;;;;;;;23.74;27.08;97074.97;5089865;28;20198;-69
2023/06/13 06:34:23;;;;;;;4.57;3.43;;;;;;;23.79;26.75;97071.56;5088180;28;20216;-70
2023/06/13 06:36:49;;;;;;;4.10;3.40;;;;;;;23.84;27.05;97069.00;5089014;28;20264;-68
2023/06/13 06:39:15;;;;;;;5.20;3.40;;;;;;;23.69;26.41;97082.91;5087835;28;20240;-71
2023/06/13 06:41:41;;;;;;;5.00;3.03;;;;;;;23.44;26.78;97081.38;5087098;28;20436;-69
2023/06/13 06:44:07;;;;;;;5.50;3.30;;;;;;;23.63;27.36;97063.28;5072506;28;20223;-69
2023/06/13 06:46:33;;;;;;;3.53;3.20;;;;;;;23.63;26.52;97073.19;5091655;28;20451;-69
2023/06/13 06:48:58;;;;;;;5.00;3.13;;;;;;;23.68;26.29;97067.94;5086677;28;20177;-69
2023/06/13 06:51:23;;;;;;;4.80;3.47;;;;;;;23.81;26.61;97076.72;5086995;28;20189;-70
2023/06/13 06:53:50;;;;;;;7.37;3.00;;;;;;;23.88;26.47;97085.38;5096750;28;20881;-69
2023/06/13 06:56:16;;;;;;;6.30;3.50;;;;;;;23.32;26.37;97088.63;5093323;28;20225;-69
2023/06/13 06:58:42;;;;;;;5.17;3.10;;;;;;;23.55;26.64;97074.38;5087109;28;20910;-69
2023/06/13 07:01:08;;;;;;;17.03;2.80;;;;;;;23.72;26.47;97077.06;5090443;28;20189;-69
2023/06/13 07:03:34;;;;;;;5.10;3.30;;;;;;;23.96;26.20;97074.31;5077080;28;20325;-69
2023/06/13 07:05:59;;;;;;;4.40;3.50;;;;;;;23.94;25.95;97073.72;5071758;28;20423;-71
2023/06/13 07:08:24;;;;;;;5.30;3.20;;;;;;;23.72;25.67;97069.06;5086312;28;20189;-69
2023/06/13 07:10:50;;;;;;;7.00;3.17;;;;;;;23.93;26.03;97069.44;5089005;28;20328;-70
2023/06/13 07:13:15;;;;;;;8.17;2.93;;;;;;;23.93;24.72;97061.41;5092488;28;20209;-71
2023/06/13 07:15:41;;;;;;;6.60;2.60;;;;;;;23.95;25.35;97063.81;5085323;28;20186;-70
2023/06/13 07:18:08;;;;;;;6.33;3.27;;;;;;;24.15;25.76;97064.19;5091499;28;20690;-70
2023/06/13 07:20:33;;;;;;;7.40;3.07;;;;;;;24.26;25.92;97059.81;5094507;28;20178;-70
2023/06/13 07:22:58;;;;;;;4.67;3.10;;;;;;;24.33;24.97;97067.66;5088944;28;20839;-70
2023/06/13 07:25:24;;;;;;;4.10;2.93;;;;;;;24.28;24.62;97071.09;5092149;28;20633;-69
2023/06/13 07:27:49;;;;;;;7.33;3.27;;;;;;;24.37;24.76;97069.63;5089269;28;20182;-69
2023/06/13 07:30:15;;;;;;;3.17;2.87;;;;;;;24.28;24.25;97068.41;5087836;28;20166;-71
2023/06/13 07:32:40;;;;;;;6.40;3.17;;;;;;;24.50;24.58;97065.81;5088920;28;20182;-71
2023/06/13 07:35:06;;;;;;;7.10;3.20;;;;;;;24.66;24.53;97064.16;5086233;28;20178;-71
2023/06/13 07:37:31;;;;;;;5.33;3.20;;;;;;;24.84;24.86;97062.25;5086599;28;20908;-71
2023/06/13 07:39:57;;;;;;;5.93;3.03;;;;;;;24.95;24.07;97061.31;5094444;28;20212;-70
2023/06/13 07:42:22;;;;;;;6.67;3.03;;;;;;;24.94;23.92;97065.09;5086091;28;20196;-68
2023/06/13 07:44:48;;;;;;;9.57;3.37;;;;;;;24.86;24.19;97051.31;5051192;28;20734;-70
2023/06/13 07:47:14;;;;;;;5.10;3.07;;;;;;;24.81;23.49;97052.84;5089165;28;20186;-69
2023/06/13 07:49:39;;;;;;;4.50;3.20;;;;;;;24.83;23.35;97058.78;5086343;28;20476;-71
2023/06/13 07:52:07;;;;;;;8.40;2.80;;;;;;;25.12;23.95;97050.56;5086349;28;20212;-71
2023/06/13 07:54:33;;;;;;;9.00;3.10;;;;;;;25.22;23.67;97052.53;5094974;28;20209;-69
2023/06/13 07:56:58;;;;;;;4.30;3.30;;;;;;;25.28;23.72;97043.50;5089349;28;20784;-69
2023/06/13 07:59:24;;;;;;;8.90;3.20;;;;;;;25.41;24.18;97049.56;5089455;28;20301;-69
2023/06/13 08:01:49;;;;;;;4.47;3.20;;;;;;;25.46;23.51;97038.88;5072303;28;20212;-69
2023/06/13 08:04:15;;;;;;;3.13;2.83;;;;;;;25.62;23.45;97037.16;5094311;28;20193;-70
2023/06/13 08:06:40;;;;;;;8.13;3.40;;;;;;;25.71;23.79;97041.00;5089707;28;20268;-70
2023/06/13 08:09:11;;;;;;;5.60;3.47;;;;;;;25.86;23.70;97039.53;5090245;28;20693;-70
2023/06/13 08:11:37;;;;;;;7.43;2.90;;;;;;;26.01;23.64;97036.16;5099019;28;20798;-70
2023/06/13 08:14:02;;;;;;;10.30;2.87;;;;;;;26.06;22.83;97036.19;5088693;28;20490;-70
2023/06/13 08:16:27;;;;;;;3.80;3.10;;;;;;;26.15;23.19;97040.06;5097734;28;20189;-70
2023/06/13 08:18:53;;;;;;;8.90;3.23;;;;;;;26.29;23.03;97048.47;5090643;28;20211;-71
2023/06/13 08:21:18;;;;;;;5.13;3.13;;;;;;;26.22;22.56;97031.78;5090060;28;20213;-70
2023/06/13 08:23:44;;;;;;;4.03;2.90;;;;;;;26.23;22.77;97038.78;5090075;28;20674;-71
2023/06/13 08:26:09;;;;;;;3.23;2.73;;;;;;;26.49;23.36;97036.25;5095651;28;20185;-70
2023/06/13 08:28:35;;;;;;;3.20;2.90;;;;;;;26.63;22.85;97039.28;5090947;28;20181;-70
2023/06/13 08:31:01;;;;;;;11.10;2.90;;;;;;;26.57;21.73;97033.06;5096814;28;20194;-70
2023/06/13 08:33:26;;;;;;;5.30;3.10;;;;;;;26.48;22.11;97035.44;5074294;28;20446;-70
2023/06/13 08:35:52;;;;;;;9.33;3.20;;;;;;;26.68;21.79;97033.94;5089230;28;20686;-71
2023/06/13 08:38:17;;;;;;;5.80;3.37;;;;;;;26.82;22.03;97028.94;5090324;28;20206;-70
2023/06/13 08:40:43;;;;;;;10.00;3.20;;;;;;;26.84;21.89;97026.78;5097955;28;20700;-71
2023/06/13 08:43:09;;;;;;;8.60;3.10;;;;;;;26.97;22.85;97025.47;5072037;28;20600;-70
2023/06/13 08:45:35;;;;;;;3.53;3.20;;;;;;;27.09;22.44;97030.66;5093435;28;20226;-71
2023/06/13 08:48:01;;;;;;;6.33;3.47;;;;;;;27.02;21.12;97030.09;5099348;28;20443;-70
2023/06/13 08:50:26;;;;;;;4.50;2.93;;;;;;;27.22;21.55;97040.13;5076851;28;20192;-70
2023/06/13 08:52:54;;;;;;;5.03;2.73;;;;;;;27.22;21.56;97030.16;5088361;28;20257;-70
2023/06/13 08:55:22;;;;;;;7.40;3.30;;;;;;;27.37;21.59;97032.06;5089375;28;20598;-70
2023/06/13 08:57:52;;;;;;;5.63;3.10;;;;;;;27.40;21.32;97030.75;5088908;28;20485;-70
2023/06/13 09:00:18;;;;;;;7.60;3.30;;;;;;;27.53;21.72;97014.13;5092337;28;20459;-70
2023/06/13 09:02:45;;;;;;;11.00;3.30;;;;;;;27.66;21.98;97015.47;5093491;28;20934;-75
2023/06/13 09:05:15;;;;;;;5.30;3.53;;;;;;;27.71;21.93;97012.81;5090525;28;20416;-69
2023/06/13 09:07:42;;;;;;;7.17;3.20;;;;;;;27.91;22.19;97019.25;5106361;28;20479;-70
2023/06/13 09:10:10;;;;;;;5.70;3.13;;;;;;;27.97;21.71;97006.59;5104074;28;20434;-69
2023/06/13 09:12:37;;;;;;;6.47;3.23;;;;;;;28.11;22.15;97006.88;5089207;28;20427;-71
2023/06/13 09:15:03;;;;;;;7.73;3.53;;;;;;;27.95;21.82;97014.97;5088700;28;21014;-70
2023/06/13 09:17:28;;;;;;;3.63;2.90;;;;;;;28.22;21.74;97013.91;5089018;28;20454;-71
2023/06/13 09:19:54;;;;;;;9.10;3.57;;;;;;;28.33;21.13;97015.50;5090278;28;20459;-70
2023/06/13 09:22:19;;;;;;;5.70;2.90;;;;;;;28.54;21.22;97015.44;5089187;28;20177;-70
2023/06/13 09:24:46;;;;;;;4.83;3.20;;;;;;;28.54;20.92;97006.56;5054959;28;20206;-70
2023/06/13 09:27:13;;;;;;;10.13;3.40;;;;;;;28.58;20.33;97015.69;5093715;28;20190;-70
2023/06/13 09:29:39;;;;;;;13.50;3.20;;;;;;;28.62;20.59;97014.88;5090324;28;20782;-70
2023/06/13 09:32:05;;;;;;;8.13;2.80;;;;;;;28.69;20.10;97008.38;5096265;28;20432;-70
2023/06/13 09:34:31;;;;;;;4.50;3.10;;;;;;;28.84;20.36;96997.59;5091526;28;20435;-70
2023/06/13 09:36:58;;;;;;;5.60;3.10;;;;;;;28.91;19.54;97014.25;5091779;28;20411;-71
2023/06/13 09:39:24;;;;;;;10.07;3.37;;;;;;;28.83;19.38;97009.44;5091273;28;20460;-71
2023/06/13 09:42:00;;;;;;;6.37;3.07;;;;;;;28.89;19.31;97010.22;5088471;28;20439;-70
2023/06/13 09:44:26;;;;;;;4.17;2.97;;;;;;;28.90;19.44;97001.06;5088226;28;20527;-70
2023/06/13 09:46:52;;;;;;;6.00;3.30;;;;;;;28.87;19.05;96990.81;5092740;28;20789;-71
2023/06/13 09:49:19;;;;;;;6.07;3.40;;;;;;;28.98;19.34;97005.06;5061486;28;20689;-69
2023/06/13 09:51:47;;;;;;;6.03;3.07;;;;;;;28.77;18.30;96988.97;5088365;28;20430;-69
2023/06/13 09:54:14;;;;;;;8.00;3.23;;;;;;;28.91;18.72;96995.38;5070201;28;20443;-70
2023/06/13 09:56:43;;;;;;;6.10;3.20;;;;;;;29.00;19.01;96989.41;5088437;28;20916;-70
2023/06/13 09:59:15;;;;;;;7.70;3.43;;;;;;;28.91;18.58;96992.69;5052863;28;20464;-69
2023/06/13 10:01:42;;;;;;;3.30;3.00;;;;;;;29.10;19.62;96989.38;5092374;28;20419;-68
2023/06/13 10:04:08;;;;;;;6.57;3.23;;;;;;;29.34;19.40;96978.72;5093586;28;20439;-70
2023/06/13 10:06:33;;;;;;;3.73;3.00;;;;;;;29.57;19.52;96979.09;5097113;28;20422;-69
2023/06/13 10:08:59;;;;;;;3.17;2.87;;;;;;;29.60;18.94;96988.56;5101268;28;20594;-71
2023/06/13 10:11:30;;;;;;;4.30;3.40;;;;;;;29.70;18.75;96988.47;5069922;28;20182;-69
2023/06/13 10:14:16;;;;;;;4.77;3.00;;;;;;;29.68;18.71;96987.94;5069289;28;20288;-70
2023/06/13 10:16:51;;;;;;;4.43;3.60;;;;;;;29.68;18.33;96977.16;5069902;28;20434;-70
2023/06/13 10:19:20;;;;;;;5.27;3.20;;;;;;;29.80;18.57;96976.78;5075106;28;20459;-69
2023/06/13 10:21:46;;;;;;;8.80;3.10;;;;;;;29.80;18.29;96980.28;5074586;28;20476;-69
2023/06/13 10:24:12;;;;;;;5.90;3.53;;;;;;;29.74;17.70;96989.50;5092965;28;20989;-69
2023/06/13 10:26:43;;;;;;;6.33;2.90;;;;;;;29.81;17.94;96983.78;5090450;28;20451;-69
2023/06/13 10:29:28;;;;;;;6.63;2.83;;;;;;;29.70;17.74;96967.66;5086867;28;20310;-70
2023/06/13 10:32:21;;;;;;;3.97;2.90;;;;;;;29.75;18.00;96983.00;5078748;28;20436;-69
2023/06/13 10:35:08;;;;;;;4.13;3.30;;;;;;;29.86;18.08;96989.16;5088260;28;20569;-70
2023/06/13 10:37:53;;;;;;;5.90;3.30;;;;;;;29.91;17.33;96980.19;5085027;28;20448;-69
2023/06/13 10:40:37;;;;;;;4.50;3.60;;;;;;;29.52;17.99;96985.34;5064336;28;20535;-69
2023/06/13 10:43:14;;;;;;;8.10;3.20;;;;;;;29.79;17.61;96975.97;5081809;28;20909;-71
2023/06/13 10:45:40;;;;;;;5.90;3.60;;;;;;;29.86;17.69;96981.88;5081005;28;21040;-70
2023/06/13 10:48:06;;;;;;;5.03;3.00;;;;;;;29.75;17.17;96983.00;5067768;28;20436;-70
2023/06/13 10:50:38;;;;;;;6.97;2.90;;;;;;;29.77;17.35;96978.16;5067975;28;20431;-69
2023/06/13 10:53:03;;;;;;;5.53;3.07;;;;;;;29.99;17.12;96971.53;5079777;28;20442;-71
2023/06/13 10:55:29;;;;;;;5.70;3.00;;;;;;;29.78;16.98;96974.34;5058547;28;20428;-71
2023/06/13 10:58:02;;;;;;;6.50;3.13;;;;;;;30.01;17.60;96963.91;5071330;28;20213;-70
2023/06/13 11:00:33;;;;;;;4.93;2.90;;;;;;;30.21;17.63;96971.03;5077884;28;20602;-69
2023/06/13 11:03:07;;;;;;;3.40;3.10;;;;;;;30.31;17.30;96972.81;5062525;28;20432;-72
2023/06/13 11:05:35;;;;;;;3.70;3.20;;;;;;;30.43;17.25;96972.44;5090429;28;20426;-70
2023/06/13 11:08:00;;;;;;;7.50;5.40;;;;;;;30.53;17.59;96963.38;5076483;28;20565;-70
2023/06/13 11:10:29;;;;;;;5.13;4.60;;;;;;;30.47;17.44;96955.34;5084246;28;20526;-70
2023/06/13 11:12:55;;;;;;;5.13;3.27;;;;;;;30.60;17.71;96961.97;5054976;28;20190;-70
2023/06/13 11:15:25;;;;;;;8.83;3.03;;;;;;;30.67;17.14;96961.63;5059638;28;20436;-70
2023/06/13 11:18:20;;;;;;;4.73;3.03;;;;;;;30.83;17.40;96951.41;5061961;28;20440;-68
2023/06/13 11:20:58;;;;;;;7.43;3.30;;;;;;;30.22;16.59;96959.13;5068332;28;20436;-69
2023/06/13 11:23:33;;;;;;;3.50;3.20;;;;;;;30.46;17.68;96971.84;5073408;28;20566;-70
2023/06/13 11:25:58;;;;;;;3.90;2.90;;;;;;;30.65;16.97;96971.91;5061179;28;20930;-71
2023/06/13 11:28:24;;;;;;;5.27;3.33;;;;;;;30.76;17.29;96962.59;5084684;28;20437;-69
2023/06/13 11:30:51;;;;;;;5.30;3.23;;;;;;;30.90;17.50;96951.88;5083490;28;20193;-71
2023/06/13 11:33:18;;;;;;;6.10;3.00;;;;;;;31.03;17.54;96955.75;5057730;28;20202;-70